Terminal Aerodrome Forecast
Issued by NWS

Home | Current Version | Previous Version | Text Only | Print | Product List | Glossary On
Versions: 1 2 3 4 5 6 7 8 9 10 11 12
000
FTUS43 KIWX 212320
TAFSBN
TAF
KSBN 212320Z 2200/2224 16009KT P6SM BKN250
     FM220400 17008KT P6SM BKN250 WS020/19040KT
     FM221300 18013G21KT P6SM SCT080 BKN200
     FM222100 19012G20KT P6SM -RA BKN060=

USA.gov is the U.S. government's official web portal to all federal, state and local government web resources and services.